Time;durP1;ratioP1;P1;durP2;ratioP2;P2;SDS_P1;SDS_P2;PMS_P1;PMS_P2;Temp;Humidity;BMP_temperature;BMP_pressure;BME280_temperature;BME280_humidity;BME280_pressure;Samples;Min_cycle;Max_cycle;Signal;HPM_P1;HPM_P2
2023/05/12 00:02:20;;;;;;;0.10;0.10;;;11.60;99.90;;;11.89;100.00;100540.47;4961714;28;20260;-81
2023/05/12 00:04:47;;;;;;;0.13;0.13;;;11.50;99.90;;;11.73;100.00;100537.69;4947408;28;20300;-81
2023/05/12 00:07:14;;;;;;;0.00;0.00;;;11.50;99.90;;;11.74;100.00;100536.81;4948308;28;20236;-80
2023/05/12 00:09:41;;;;;;;0.10;0.10;;;11.60;99.90;;;11.88;100.00;100531.63;4958464;28;20284;-80
2023/05/12 00:12:09;;;;;;;0.00;0.00;;;11.50;99.90;;;11.87;100.00;100532.50;4986626;28;20288;-80
2023/05/12 00:14:36;;;;;;;0.00;0.00;;;;;;;11.77;100.00;100522.72;4971416;28;20339;-80
2023/05/12 00:17:05;;;;;;;0.10;0.10;;;11.50;99.90;;;11.83;100.00;100528.06;4968495;28;20296;-81
2023/05/12 00:19:33;;;;;;;0.00;0.00;;;;;;;11.82;100.00;100527.19;4976931;28;20363;-80
2023/05/12 00:22:01;;;;;;;0.10;0.10;;;;;;;11.68;100.00;100523.50;4951140;28;20237;-81
2023/05/12 00:24:29;;;;;;;0.10;0.10;;;;;;;11.67;100.00;100520.84;4968431;28;20229;-80
2023/05/12 00:26:56;;;;;;;0.10;0.10;;;;;;;11.72;100.00;100520.03;4972955;28;20233;-81
2023/05/12 00:29:24;;;;;;;0.10;0.10;;;;;;;11.71;100.00;100512.97;4970346;28;20295;-80
2023/05/12 00:31:51;;;;;;;0.10;0.10;;;;;;;11.81;100.00;100516.56;4959672;28;20257;-80
2023/05/12 00:34:19;;;;;;;0.10;0.10;;;;;;;11.80;100.00;100521.00;4964337;28;20328;-79
2023/05/12 00:36:46;;;;;;;0.03;0.03;;;;;;;11.78;100.00;100522.75;4944750;28;20226;-79
2023/05/12 00:39:13;;;;;;;0.10;0.10;;;;;;;11.78;100.00;100519.22;4941924;28;20289;-80
2023/05/12 00:41:41;;;;;;;0.10;0.10;;;;;;;11.82;100.00;100521.88;4947435;28;20276;-79
2023/05/12 00:44:09;;;;;;;0.10;0.10;;;;;;;11.78;100.00;100516.56;4950170;28;20647;-79
2023/05/12 00:46:36;;;;;;;0.10;0.10;;;;;;;11.70;100.00;100512.91;4949423;28;20292;-80
2023/05/12 00:49:04;;;;;;;0.00;0.00;;;;;;;11.65;100.00;100515.53;4941883;28;20245;-80
2023/05/12 00:51:31;;;;;;;0.00;0.00;;;;;;;11.63;100.00;100512.00;4947993;28;20325;-80
2023/05/12 00:53:59;;;;;;;0.05;0.05;;;;;;;11.60;100.00;100513.75;4981945;28;20240;-80
2023/05/12 00:56:26;;;;;;;0.10;0.10;;;;;;;11.73;100.00;100521.81;4967390;28;20263;-80
2023/05/12 00:58:54;;;;;;;0.10;0.10;;;;;;;11.78;100.00;100529.81;4966368;28;20267;-80
2023/05/12 01:01:21;;;;;;;0.20;0.20;;;;;;;11.70;100.00;100532.38;4954947;28;20234;-81
2023/05/12 01:03:49;;;;;;;0.10;0.10;;;;;;;11.72;100.00;100540.34;4948155;28;20237;-80
2023/05/12 01:06:46;;;;;;;0.10;0.10;;;11.50;99.90;;;11.69;100.00;100540.28;4946219;28;20242;-81
2023/05/12 01:09:14;;;;;;;0.60;0.30;;;11.40;99.90;;;11.62;100.00;100535.81;4968248;28;20652;-80
2023/05/12 01:11:42;;;;;;;0.10;0.10;;;;;;;11.65;100.00;100549.09;4966128;28;20283;-80
2023/05/12 01:14:09;;;;;;;0.10;0.10;;;;;;;11.63;100.00;100548.19;4951609;28;20250;-80
2023/05/12 01:16:49;;;;;;;0.17;0.17;;;11.30;99.90;;;11.62;100.00;100542.00;4941418;28;20340;-80
2023/05/12 01:19:48;;;;;;;0.10;0.10;;;11.30;99.90;;;11.64;100.00;100552.63;4945895;29;20247;-81
2023/05/12 01:22:16;;;;;;;0.10;0.10;;;11.30;99.90;;;11.61;100.00;100558.78;4927671;29;20714;-80
2023/05/12 01:24:58;;;;;;;0.10;0.10;;;11.30;99.90;;;11.54;100.00;100554.31;4943675;28;20249;-80
2023/05/12 01:27:27;;;;;;;0.30;0.28;;;11.30;99.90;;;11.53;100.00;100553.44;4950207;28;20281;-79
2023/05/12 01:30:03;;;;;;;0.10;0.10;;;11.30;99.90;;;11.52;100.00;100556.06;4946085;28;20257;-81
2023/05/12 01:32:30;;;;;;;0.10;0.10;;;;;;;11.50;100.00;100560.47;4947301;29;20248;-82
2023/05/12 01:34:58;;;;;;;0.00;0.00;;;;;;;11.57;100.00;100561.41;4946060;28;20703;-80
2023/05/12 01:37:26;;;;;;;0.10;0.10;;;;;;;11.54;100.00;100565.78;4949371;28;20238;-81
2023/05/12 01:39:53;;;;;;;0.32;0.32;;;;;;;11.59;100.00;100562.28;4951609;28;20287;-82
2023/05/12 01:42:21;;;;;;;0.10;0.10;;;;;;;11.55;100.00;100577.28;4944174;29;20293;-80
2023/05/12 01:44:50;;;;;;;0.05;0.05;;;11.30;99.90;;;11.53;100.00;100571.97;4948956;28;20238;-80
2023/05/12 01:47:19;;;;;;;0.13;0.13;;;;;;;11.61;100.00;100573.78;4940310;28;20229;-81
2023/05/12 01:49:47;;;;;;;0.10;0.10;;;;;;;11.50;100.00;100571.94;4960394;23;20289;-75
2023/05/12 01:52:14;;;;;;;0.00;0.00;;;;;;;11.53;100.00;100558.72;4949737;28;20263;-77
2023/05/12 01:54:41;;;;;;;0.17;0.17;;;11.10;99.90;;;11.55;100.00;100561.38;4960832;28;20328;-77
2023/05/12 01:57:09;;;;;;;0.68;0.68;;;;;;;11.55;100.00;100564.91;4966886;28;20236;-77
2023/05/12 01:59:36;;;;;;;1.65;0.47;;;;;;;11.57;100.00;100554.34;4970379;28;20249;-79
2023/05/12 02:02:03;;;;;;;0.00;0.00;;;11.30;99.90;;;11.62;100.00;100559.66;4969061;28;20233;-78
2023/05/12 02:04:30;;;;;;;0.13;0.13;;;11.30;99.90;;;11.60;100.00;100564.06;4969639;28;20694;-76
2023/05/12 02:06:57;;;;;;;0.32;0.30;;;11.30;99.90;;;11.61;100.00;100563.19;4967353;28;20228;-75
2023/05/12 02:09:24;;;;;;;0.22;0.22;;;11.30;99.90;;;11.57;100.00;100556.09;4969852;28;20320;-78
2023/05/12 02:11:52;;;;;;;0.10;0.10;;;;;;;11.62;100.00;100562.31;4969165;28;20237;-76
2023/05/12 02:14:19;;;;;;;0.13;0.13;;;11.30;99.90;;;11.59;100.00;100564.94;4965236;28;20331;-76
2023/05/12 02:16:51;;;;;;;0.13;0.13;;;11.30;99.90;;;11.57;100.00;100558.75;4967508;28;20300;-76
2023/05/12 02:19:19;;;;;;;0.30;0.30;;;11.30;99.90;;;11.60;100.00;100566.72;4962237;28;20229;-75
2023/05/12 02:21:47;;;;;;;0.10;0.10;;;11.30;99.90;;;11.63;100.00;100575.56;4969853;28;20289;-72
2023/05/12 02:24:15;;;;;;;0.50;0.50;;;11.30;99.90;;;11.60;100.00;100575.56;4964366;28;20232;-72
2023/05/12 02:26:42;;;;;;;0.20;0.20;;;11.30;99.90;;;11.52;100.00;100578.16;4968061;28;20276;-73
2023/05/12 02:29:10;;;;;;;0.10;0.10;;;11.30;99.90;;;11.51;100.00;100588.72;4969756;28;20241;-73
2023/05/12 02:31:37;;;;;;;0.03;0.03;;;11.30;99.90;;;11.53;100.00;100587.88;4968657;28;20328;-73
2023/05/12 02:34:05;;;;;;;0.10;0.10;;;11.20;99.90;;;11.57;100.00;100590.53;4966072;28;20260;-73
2023/05/12 02:36:32;;;;;;;0.20;0.20;;;11.30;99.90;;;11.60;100.00;100611.75;4968488;28;20237;-73
2023/05/12 02:38:59;;;;;;;0.00;0.00;;;11.40;99.90;;;11.60;100.00;100611.75;4967691;28;20245;-73
2023/05/12 02:41:27;;;;;;;0.60;0.60;;;11.30;99.90;;;11.51;100.00;100607.25;4967713;28;20300;-72
2023/05/12 02:43:53;;;;;;;0.10;0.10;;;11.30;99.90;;;11.46;100.00;100598.41;4967648;28;20293;-73
2023/05/12 02:46:21;;;;;;;0.20;0.20;;;11.20;99.90;;;11.47;100.00;100586.94;4967966;28;20233;-77
2023/05/12 02:48:48;;;;;;;0.10;0.10;;;11.20;99.90;;;11.51;100.00;100599.31;4969515;28;20288;-77
2023/05/12 02:51:15;;;;;;;0.00;0.00;;;11.20;99.90;;;11.46;100.00;100596.63;4967729;28;20232;-74
2023/05/12 02:53:42;;;;;;;0.40;0.40;;;11.20;99.90;;;11.48;100.00;100596.66;4967027;28;20258;-74
2023/05/12 02:56:09;;;;;;;0.10;0.10;;;11.20;99.90;;;11.50;100.00;100594.91;4964176;28;20242;-75
2023/05/12 02:58:36;;;;;;;0.10;0.10;;;11.20;99.90;;;11.45;100.00;100591.31;4958383;28;20287;-78
2023/05/12 03:01:03;;;;;;;0.10;0.10;;;11.20;99.90;;;11.46;100.00;100593.97;4969033;28;20305;-77
2023/05/12 03:03:37;;;;;;;0.10;0.10;;;11.10;99.90;;;11.52;100.00;100596.69;4961286;28;20348;-74
2023/05/12 03:06:05;;;;;;;0.20;0.20;;;11.20;99.90;;;11.52;100.00;100601.97;4950516;28;20701;-74
2023/05/12 03:08:32;;;;;;;0.10;0.10;;;11.30;99.90;;;11.56;100.00;100602.88;4971432;28;20261;-74
2023/05/12 03:10:59;;;;;;;0.10;0.10;;;11.30;99.90;;;11.49;100.00;100606.38;4964564;28;20245;-74
2023/05/12 03:13:27;;;;;;;0.10;0.10;;;;;;;11.54;100.00;100616.13;4971380;28;20260;-75
2023/05/12 03:15:54;;;;;;;0.40;0.40;;;11.30;99.90;;;11.61;100.00;100618.81;4968030;28;20272;-74
2023/05/12 03:18:21;;;;;;;0.10;0.10;;;11.30;99.90;;;11.57;100.00;100623.22;4970734;28;20303;-73
2023/05/12 03:20:48;;;;;;;0.63;0.63;;;11.20;99.90;;;11.56;100.00;100621.44;4961398;28;20321;-74
2023/05/12 03:23:15;;;;;;;0.30;0.30;;;11.20;99.90;;;11.54;100.00;100623.19;4967729;28;20320;-74
2023/05/12 03:25:43;;;;;;;0.30;0.30;;;11.30;99.90;;;11.53;100.00;100630.25;4968571;28;20242;-74
2023/05/12 03:28:10;;;;;;;0.30;0.30;;;11.30;99.90;;;11.51;100.00;100623.16;4962099;28;20293;-74
2023/05/12 03:30:37;;;;;;;0.10;0.10;;;11.20;99.90;;;11.49;100.00;100631.09;4963727;28;20283;-73
2023/05/12 03:33:04;;;;;;;0.10;0.10;;;11.20;99.90;;;11.46;100.00;100627.53;4951214;28;20237;-74
2023/05/12 03:35:31;;;;;;;0.10;0.10;;;11.20;99.90;;;11.51;100.00;100634.63;4965172;28;20229;-73
2023/05/12 03:37:58;;;;;;;0.10;0.10;;;11.20;99.90;;;11.47;100.00;100638.13;4966680;28;20241;-73
2023/05/12 03:40:25;;;;;;;0.10;0.10;;;11.20;99.90;;;11.46;100.00;100635.47;4968849;28;20237;-73
2023/05/12 03:42:52;;;;;;;0.10;0.10;;;11.20;99.90;;;11.46;100.00;100643.41;4968965;28;20308;-74
2023/05/12 03:45:20;;;;;;;0.00;0.00;;;11.20;99.90;;;11.46;100.00;100648.72;4962231;28;20256;-73
2023/05/12 03:47:47;;;;;;;0.30;0.30;;;11.20;99.90;;;11.41;100.00;100650.44;4963294;28;20230;-73
2023/05/12 03:50:14;;;;;;;0.80;0.65;;;11.20;99.90;;;11.40;100.00;100646.91;4962868;28;20234;-73
2023/05/12 03:52:41;;;;;;;0.10;0.10;;;11.20;99.90;;;11.33;100.00;100646.84;4969534;28;20229;-73
2023/05/12 03:55:09;;;;;;;0.10;0.10;;;11.10;99.90;;;11.39;100.00;100647.78;4963814;28;20626;-74
2023/05/12 03:57:37;;;;;;;0.10;0.10;;;;;;;11.48;100.00;100654.91;4969771;28;20262;-76
2023/05/12 04:00:05;;;;;;;0.00;0.00;;;11.20;99.90;;;11.43;100.00;100654.88;4965960;28;20328;-74
2023/05/12 04:02:32;;;;;;;0.00;0.00;;;11.20;99.90;;;11.43;100.00;100652.22;4961541;28;20229;-74
2023/05/12 04:05:00;;;;;;;0.60;0.60;;;11.20;99.90;;;11.44;100.00;100656.66;4966706;28;20697;-75
2023/05/12 04:07:27;;;;;;;0.10;0.10;;;11.20;99.90;;;11.49;100.00;100664.63;4963850;28;20583;-74
2023/05/12 04:09:54;;;;;;;0.10;0.10;;;11.20;99.90;;;11.49;100.00;100664.63;4960220;28;20241;-73
2023/05/12 04:12:22;;;;;;;0.10;0.10;;;11.20;99.90;;;11.42;100.00;100668.97;4966640;28;20236;-73
2023/05/12 04:14:49;;;;;;;0.77;0.20;;;11.20;99.90;;;11.43;100.00;100668.13;4970443;28;20706;-73
2023/05/12 04:17:18;;;;;;;0.10;0.10;;;11.20;99.90;;;11.40;100.00;100681.31;4964830;28;20264;-73
2023/05/12 04:19:52;;;;;;;0.10;0.10;;;11.20;99.90;;;11.52;100.00;100683.19;4970281;28;20240;-73
2023/05/12 04:22:24;;;;;;;0.10;0.10;;;11.30;99.90;;;11.57;100.00;100692.06;4963424;28;20244;-73
2023/05/12 04:24:52;;;;;;;0.00;0.00;;;11.30;99.90;;;11.62;100.00;100700.06;4967037;28;20269;-76
2023/05/12 04:27:19;;;;;;;0.10;0.10;;;11.30;99.90;;;11.59;100.00;100698.28;4962470;28;20235;-76
2023/05/12 04:29:46;;;;;;;0.75;0.75;;;11.40;99.90;;;11.60;100.00;100700.03;4964464;28;20296;-75
2023/05/12 04:32:13;;;;;;;0.00;0.00;;;11.40;99.90;;;11.63;100.00;100702.72;4964637;28;20248;-76
2023/05/12 04:34:40;;;;;;;0.10;0.10;;;11.40;99.90;;;11.64;100.00;100708.91;4966923;28;20232;-75
2023/05/12 04:37:07;;;;;;;0.10;0.10;;;11.40;99.90;;;11.68;100.00;100710.72;4959788;28;20238;-75
2023/05/12 04:39:34;;;;;;;0.20;0.20;;;11.40;99.90;;;11.69;100.00;100710.72;4971099;28;20266;-74
2023/05/12 04:42:01;;;;;;;0.10;0.10;;;11.40;99.90;;;11.73;100.00;100715.22;4969104;28;20757;-74
2023/05/12 04:44:28;;;;;;;0.00;0.00;;;11.40;99.90;;;11.70;100.00;100717.84;4965620;28;20233;-75
2023/05/12 04:46:56;;;;;;;0.10;0.10;;;11.40;99.90;;;11.70;100.00;100722.22;4959013;28;20332;-74
2023/05/12 04:49:24;;;;;;;0.88;0.88;;;11.50;99.90;;;11.74;100.00;100726.69;4959655;28;20256;-74
2023/05/12 04:51:51;;;;;;;0.10;0.10;;;;;;;11.74;100.00;100732.88;4958291;28;20653;-74
2023/05/12 04:54:18;;;;;;;0.80;0.38;;;11.40;99.90;;;11.72;100.00;100741.69;4962079;28;20296;-74
2023/05/12 04:56:47;;;;;;;0.10;0.10;;;11.50;99.90;;;11.79;100.00;100746.19;4952082;28;20231;-74
2023/05/12 04:59:17;;;;;;;0.32;0.32;;;11.50;99.90;;;11.80;100.00;100746.22;4964509;28;20579;-74
2023/05/12 05:01:44;;;;;;;0.10;0.10;;;;;;;11.73;100.00;100743.47;4966583;28;20280;-74
2023/05/12 05:04:11;;;;;;;0.30;0.30;;;11.60;99.90;;;11.79;100.00;100747.09;4954574;28;20232;-74
2023/05/12 05:06:38;;;;;;;0.00;0.00;;;11.60;99.90;;;11.86;100.00;100755.97;4969652;28;20303;-73
2023/05/12 05:09:06;;;;;;;0.28;0.28;;;11.50;99.90;;;11.75;100.00;100760.25;4970061;28;20264;-74
2023/05/12 05:11:33;;;;;;;0.10;0.10;;;11.50;99.90;;;11.92;100.00;100757.81;4968697;28;20229;-74
2023/05/12 05:14:00;;;;;;;0.10;0.10;;;11.70;99.90;;;11.84;100.00;100758.63;4964668;28;20257;-73
2023/05/12 05:16:27;;;;;;;0.10;0.10;;;;;;;11.91;100.00;100763.97;4965136;28;20248;-74
2023/05/12 05:18:55;;;;;;;0.10;0.10;;;11.60;99.90;;;11.86;100.00;100766.59;4971933;28;20241;-73
2023/05/12 05:21:24;;;;;;;0.00;0.00;;;11.60;99.90;;;11.85;100.00;100770.09;4965910;28;20233;-73
2023/05/12 05:23:51;;;;;;;0.10;0.10;;;11.70;99.90;;;11.88;100.00;100769.25;4966196;28;20303;-73
2023/05/12 05:26:20;;;;;;;0.10;0.10;;;11.60;99.90;;;11.90;100.00;100772.81;4968789;28;20255;-73
2023/05/12 05:28:47;;;;;;;0.10;0.10;;;11.80;99.90;;;12.04;100.00;100781.75;4967380;28;20236;-73
2023/05/12 05:31:16;;;;;;;0.10;0.10;;;11.80;99.90;;;12.01;100.00;100779.09;4962988;28;20260;-73
2023/05/12 05:33:43;;;;;;;0.10;0.10;;;11.80;99.90;;;12.02;100.00;100784.41;4969379;28;20709;-74
2023/05/12 05:36:10;;;;;;;0.10;0.10;;;11.80;99.90;;;12.07;100.00;100787.09;4964196;28;20317;-73
2023/05/12 05:38:37;;;;;;;0.10;0.10;;;11.80;99.90;;;12.13;100.00;100792.44;4971134;28;20689;-74
2023/05/12 05:41:05;;;;;;;0.10;0.10;;;11.90;99.90;;;12.24;100.00;100803.13;4965825;28;20243;-73
2023/05/12 05:43:32;;;;;;;0.17;0.17;;;12.00;99.90;;;12.34;100.00;100807.63;4963253;28;20653;-75
2023/05/12 05:45:59;;;;;;;0.10;0.10;;;12.00;99.90;;;12.39;100.00;100811.22;4963947;28;20244;-75
2023/05/12 05:48:26;;;;;;;0.20;0.20;;;12.10;99.90;;;12.40;100.00;100811.22;4963825;28;20229;-74
2023/05/12 05:50:53;;;;;;;0.00;0.00;;;12.00;99.90;;;12.31;100.00;100805.84;4968559;28;20284;-73
2023/05/12 05:53:21;;;;;;;0.25;0.25;;;12.10;99.90;;;12.36;100.00;100808.53;4964845;28;20686;-74
2023/05/12 05:55:48;;;;;;;0.10;0.10;;;12.10;99.90;;;12.32;100.00;100810.28;4963601;28;20287;-73
2023/05/12 05:58:16;;;;;;;0.10;0.10;;;12.10;99.90;;;12.43;100.00;100811.25;4967787;28;20248;-73
2023/05/12 06:00:43;;;;;;;0.17;0.17;;;12.20;99.90;;;12.39;100.00;100812.09;4967142;28;20221;-73
2023/05/12 06:03:10;;;;;;;0.17;0.17;;;12.20;99.90;;;12.44;100.00;100812.13;4963322;28;20236;-74
2023/05/12 06:05:37;;;;;;;0.17;0.17;;;12.20;99.90;;;12.50;100.00;100815.72;4961806;28;20303;-75
2023/05/12 06:08:07;;;;;;;0.40;0.40;;;12.40;99.90;;;12.65;100.00;100830.84;4983421;28;20237;-75
2023/05/12 06:10:35;;;;;;;0.10;0.10;;;;;;;12.52;100.00;100810.41;4968011;28;20229;-74
2023/05/12 06:13:02;;;;;;;0.10;0.10;;;12.30;99.90;;;12.45;100.00;100808.59;4962870;28;20237;-75
2023/05/12 06:15:29;;;;;;;0.10;0.10;;;12.30;99.90;;;12.55;100.00;100813.09;4966126;28;20296;-74
2023/05/12 06:17:56;;;;;;;0.70;0.43;;;;;;;12.62;100.00;100822.00;4968767;28;20763;-75
2023/05/12 06:20:24;;;;;;;0.10;0.10;;;12.40;99.90;;;12.79;100.00;100829.19;4970569;28;20233;-74
2023/05/12 06:22:51;;;;;;;0.03;0.03;;;12.40;99.90;;;12.78;100.00;100830.06;4967816;28;20311;-73
2023/05/12 06:25:18;;;;;;;0.05;0.05;;;12.40;99.90;;;12.65;100.00;100820.25;4975615;28;20236;-73
2023/05/12 06:27:46;;;;;;;0.20;0.20;;;12.50;99.90;;;12.86;100.00;100837.19;4971244;28;20252;-72
2023/05/12 06:30:13;;;;;;;0.10;0.10;;;12.60;99.90;;;12.83;100.00;100824.78;4973009;28;20249;-74
2023/05/12 06:32:42;;;;;;;0.00;0.00;;;;;;;12.75;100.00;100822.06;4973484;28;20328;-72
2023/05/12 06:35:10;;;;;;;0.47;0.45;;;;;;;12.78;100.00;100827.41;4972713;28;20263;-73
2023/05/12 06:37:38;;;;;;;0.20;0.20;;;;;;;12.92;100.00;100831.91;4973229;28;20327;-74
2023/05/12 06:40:06;;;;;;;0.00;0.00;;;12.70;99.90;;;13.11;100.00;100837.34;4970901;28;20236;-73
2023/05/12 06:42:33;;;;;;;0.13;0.13;;;12.90;99.90;;;13.22;100.00;100834.78;4973903;28;20361;-73
2023/05/12 06:45:00;;;;;;;0.10;0.10;;;12.90;99.90;;;13.21;100.00;100833.00;4968017;28;20245;-73
2023/05/12 06:47:27;;;;;;;0.70;0.70;;;;;;;13.10;100.00;100829.38;4973244;28;20244;-73
2023/05/12 06:49:54;;;;;;;0.10;0.10;;;13.00;99.90;;;13.33;100.00;100838.38;4971600;28;20627;-73
2023/05/12 06:52:22;;;;;;;0.10;0.10;;;13.10;99.90;;;13.44;100.00;100846.38;4972176;28;20280;-74
2023/05/12 06:54:50;;;;;;;0.20;0.20;;;13.20;99.90;;;13.45;100.00;100843.75;4971475;28;20252;-73
2023/05/12 06:57:17;;;;;;;0.00;0.00;;;13.20;99.90;;;13.37;100.00;100845.47;4973353;28;20281;-74
2023/05/12 06:59:44;;;;;;;0.30;0.30;;;13.30;99.90;;;13.57;100.00;100853.53;4970742;28;20267;-73
2023/05/12 07:02:11;;;;;;;0.25;0.25;;;13.30;99.90;;;13.38;100.00;100839.28;4972904;28;20264;-74
2023/05/12 07:04:38;;;;;;;0.22;0.22;;;13.30;99.90;;;13.54;100.00;100848.19;4972760;28;20300;-74
2023/05/12 07:07:05;;;;;;;0.22;0.22;;;13.40;99.90;;;13.66;100.00;100852.66;4963174;28;20236;-73
2023/05/12 07:09:32;;;;;;;0.10;0.10;;;13.40;99.90;;;13.62;100.00;100853.53;4972865;28;20237;-73
2023/05/12 07:11:59;;;;;;;0.00;0.00;;;13.40;99.90;;;13.53;100.00;100851.75;4971294;28;20233;-73
2023/05/12 07:14:26;;;;;;;1.30;0.40;;;13.40;99.90;;;13.60;100.00;100848.22;4968061;28;20225;-74
2023/05/12 07:16:53;;;;;;;0.10;0.10;;;13.40;99.90;;;13.72;100.00;100850.03;4967043;28;20291;-73
2023/05/12 07:19:20;;;;;;;0.15;0.15;;;13.50;99.90;;;13.72;100.00;100852.69;4978753;28;20259;-73
2023/05/12 07:21:48;;;;;;;0.95;0.95;;;;;;;13.81;100.00;100851.81;4973535;28;20279;-73
2023/05/12 07:24:15;;;;;;;0.35;0.35;;;13.60;99.90;;;13.81;100.00;100857.13;4983025;28;20285;-74
2023/05/12 07:26:43;;;;;;;1.30;0.75;;;13.60;99.90;;;13.78;100.00;100844.72;4966914;28;20229;-73
2023/05/12 07:29:10;;;;;;;0.30;0.30;;;13.50;99.90;;;13.86;100.00;100850.06;4962420;28;20308;-73
2023/05/12 07:31:39;;;;;;;0.75;0.75;;;13.50;99.90;;;13.73;100.00;100838.50;4967818;28;20235;-74
2023/05/12 07:34:07;;;;;;;0.10;0.10;;;13.70;99.90;;;13.99;100.00;100852.75;4960652;28;20707;-73
2023/05/12 07:36:35;;;;;;;0.00;0.00;;;;;;;14.05;100.00;100844.78;4970804;28;20244;-74
2023/05/12 07:39:02;;;;;;;0.15;0.15;;;13.90;99.90;;;14.21;100.00;100852.78;4965773;28;20309;-74
2023/05/12 07:41:29;;;;;;;0.43;0.43;;;14.00;99.90;;;14.21;100.00;100843.03;4962887;28;20708;-74
2023/05/12 07:44:01;;;;;;;0.22;0.20;;;17.10;99.90;;;14.17;100.00;100840.34;4963820;28;20292;-74
2023/05/12 07:46:28;;;;;;;0.10;0.10;;;13.90;99.90;;;14.07;100.00;100829.72;4965260;28;20267;-75
2023/05/12 07:48:56;;;;;;;0.00;0.00;;;13.80;99.90;;;13.99;100.00;100822.59;4963906;28;20328;-75
2023/05/12 07:51:23;;;;;;;0.10;0.10;;;13.70;99.90;;;14.06;100.00;100816.41;4996649;23;20251;-77
2023/05/12 07:53:50;;;;;;;0.00;0.00;;;;;;;13.99;100.00;100814.63;4981336;28;20300;-77
2023/05/12 07:56:17;;;;;;;0.52;0.40;;;;;;;14.02;100.00;100809.31;4982088;28;20346;-77
2023/05/12 07:58:45;;;;;;;0.10;0.10;;;;;;;14.05;100.00;100802.22;4981953;28;20259;-78
2023/05/12 08:01:14;;;;;;;0.00;0.00;;;;;;;14.10;100.00;100804.88;4989077;28;20243;-77
2023/05/12 08:03:41;;;;;;;0.90;0.73;;;;;;;14.21;100.00;100810.22;4987780;28;20282;-76
2023/05/12 08:06:09;;;;;;;0.05;0.05;;;;;;;14.13;100.00;100788.03;4964540;28;20320;-76
2023/05/12 08:08:36;;;;;;;0.00;0.00;;;;;;;14.14;100.00;100792.47;4982294;28;20289;-79
2023/05/12 08:11:04;;;;;;;0.20;0.20;;;;;;;14.16;100.00;100786.28;4983310;28;20231;-80
2023/05/12 08:13:32;;;;;;;0.10;0.10;;;;;;;14.24;100.00;100791.59;4989035;28;20244;-79
2023/05/12 08:15:59;;;;;;;1.17;1.17;;;;;;;14.26;100.00;100782.72;4987036;28;20335;-80
2023/05/12 08:18:27;;;;;;;0.05;0.05;;;;;;;14.28;100.00;100780.06;4988116;28;20704;-80
2023/05/12 08:20:55;;;;;;;0.57;0.57;;;;;;;14.46;100.00;100789.88;4984616;28;20224;-76
2023/05/12 08:23:22;;;;;;;0.10;0.10;;;;;;;14.53;100.00;100784.53;4981492;28;20299;-76
2023/05/12 08:25:50;;;;;;;1.50;1.40;;;;;;;14.50;100.00;100775.66;4983604;28;20236;-77
2023/05/12 08:28:18;;;;;;;3.22;1.20;;;;;;;14.62;100.00;100776.53;4989687;28;20238;-77
2023/05/12 08:30:45;;;;;;;0.22;0.22;;;;;;;14.52;100.00;100766.78;4988867;28;20327;-77
2023/05/12 08:33:13;;;;;;;0.45;0.45;;;;;;;14.58;100.00;100764.13;4985736;28;20240;-78
2023/05/12 08:35:41;;;;;;;1.02;1.02;;;;;;;14.38;100.00;100741.94;4985162;28;20240;-78
2023/05/12 08:38:11;;;;;;;0.08;0.08;;;14.30;99.90;;;14.51;100.00;100735.75;4988261;28;20236;-79
2023/05/12 08:40:48;;;;;;;0.00;0.00;;;14.20;99.90;;;14.47;100.00;100722.44;4985196;28;20288;-78
2023/05/12 08:43:33;;;;;;;0.47;0.40;;;14.30;99.90;;;14.39;100.00;100710.00;4985381;28;20302;-78
2023/05/12 08:46:01;;;;;;;0.00;0.00;;;;;;;14.34;100.00;100713.56;4983866;28;20283;-79
2023/05/12 08:48:29;;;;;;;0.17;0.17;;;;;;;14.54;100.00;100721.53;4987396;28;20243;-78
2023/05/12 08:50:57;;;;;;;3.38;0.52;;;14.40;99.90;;;14.54;100.00;100721.53;4968433;28;20244;-79
2023/05/12 08:53:27;;;;;;;0.00;0.00;;;14.40;99.90;;;14.69;100.00;100735.69;4985733;28;20746;-78
2023/05/12 08:55:56;;;;;;;0.20;0.20;;;14.50;99.90;;;14.78;100.00;100728.56;4966048;28;20232;-78
2023/05/12 08:58:45;;;;;;;0.30;0.30;;;14.60;99.90;;;14.94;100.00;100728.50;4985195;28;20236;-77
2023/05/12 09:01:13;;;;;;;0.03;0.03;;;;;;;14.76;100.00;100698.41;4968203;28;20236;-78
2023/05/12 09:03:41;;;;;;;0.00;0.00;;;;;;;14.89;100.00;100705.44;4976936;28;20291;-78
2023/05/12 09:06:10;;;;;;;0.00;0.00;;;14.70;99.90;;;14.96;100.00;100702.75;4977190;28;20247;-78
2023/05/12 09:08:39;;;;;;;0.10;0.10;;;14.80;99.90;;;15.04;100.00;100692.94;4978136;28;20243;-78
2023/05/12 09:11:11;;;;;;;0.00;0.00;;;14.90;99.90;;;15.22;100.00;100680.41;4986024;28;20236;-79
2023/05/12 09:14:05;;;;;;;0.32;0.32;;;15.00;99.90;;;15.41;100.00;100671.41;4981636;28;20393;-78
2023/05/12 09:16:36;;;;;;;0.03;0.03;;;15.10;99.90;;;15.45;100.00;100649.16;4980899;28;20229;-78
2023/05/12 09:19:03;;;;;;;0.00;0.00;;;15.40;99.90;;;15.81;100.00;100655.16;4986499;28;20236;-78
2023/05/12 09:21:33;;;;;;;0.00;0.00;;;;;;;15.76;100.00;100620.53;4983543;28;20315;-78
2023/05/12 09:24:07;;;;;;;0.00;0.00;;;15.60;99.90;;;15.91;100.00;100611.50;4979193;28;20327;-79
2023/05/12 09:26:48;;;;;;;0.00;0.00;;;15.80;99.90;;;16.39;100.00;100603.88;4983575;28;20231;-78
2023/05/12 09:29:17;;;;;;;0.08;0.08;;;;;;;16.69;100.00;100590.16;4966014;28;20345;-78
2023/05/12 09:32:00;;;;;;;0.38;0.38;;;16.30;99.90;;;16.63;100.00;100572.41;4982267;28;20320;-79
2023/05/12 09:34:39;;;;;;;0.00;0.00;;;16.40;99.90;;;16.71;100.00;100539.41;4983904;28;20306;-79
2023/05/12 09:37:08;;;;;;;0.13;0.13;;;;;;;16.47;100.00;100505.88;4984718;28;20236;-78
2023/05/12 09:39:35;;;;;;;0.00;0.00;;;;;;;16.37;100.00;100490.91;4987328;28;20308;-79
2023/05/12 09:42:09;;;;;;;0.80;0.63;;;;;;;16.16;100.00;100457.38;4987087;28;20306;-79
2023/05/12 09:44:38;;;;;;;5.05;0.52;;;16.10;99.90;;;16.23;100.00;100467.06;4986062;28;20291;-79
2023/05/12 09:47:09;;;;;;;0.25;0.17;;;15.30;99.90;;;16.06;100.00;100445.06;4984130;28;20302;-79
2023/05/12 09:49:37;;;;;;;0.00;0.00;;;15.90;99.90;;;16.10;100.00;100441.47;4989651;28;20231;-79
2023/05/12 09:52:04;;;;;;;0.00;0.00;;;16.00;99.90;;;16.18;100.00;100447.56;4989225;28;20288;-79
2023/05/12 09:54:33;;;;;;;0.30;0.30;;;16.10;99.90;;;16.22;100.00;100442.19;4991584;28;20225;-78
2023/05/12 09:57:03;;;;;;;0.30;0.28;;;16.20;99.90;;;16.40;100.00;100457.03;4979540;28;20233;-79
2023/05/12 09:59:34;;;;;;;0.40;0.40;;;16.10;99.90;;;16.41;100.00;100449.91;4990744;28;20244;-79
2023/05/12 10:02:05;;;;;;;0.28;0.28;;;16.30;99.90;;;16.59;100.00;100445.19;4990636;28;20260;-79
2023/05/12 10:04:46;;;;;;;0.17;0.17;;;16.50;99.90;;;16.93;100.00;100456.28;4986812;28;20244;-80
2023/05/12 10:07:22;;;;;;;0.88;0.40;;;16.70;99.90;;;16.88;100.00;100427.84;4986711;28;20228;-79
2023/05/12 10:09:51;;;;;;;0.30;0.22;;;;;;;16.62;100.00;100386.41;4981971;28;20264;-78
2023/05/12 10:12:18;;;;;;;0.00;0.00;;;16.40;99.90;;;16.48;100.00;100369.72;4983080;28;20728;-79
2023/05/12 10:14:48;;;;;;;0.00;0.00;;;16.30;99.90;;;16.32;100.00;100350.41;4981583;28;20256;-80
2023/05/12 10:17:21;;;;;;;0.00;0.00;;;16.20;99.90;;;16.29;100.00;100352.25;4966045;28;20231;-78
2023/05/12 10:19:49;;;;;;;0.20;0.20;;;16.10;99.90;;;16.09;100.00;100344.53;4975528;28;20240;-78
2023/05/12 10:22:19;;;;;;;0.03;0.03;;;15.90;99.90;;;15.98;100.00;100343.81;4982027;28;20244;-80
2023/05/12 10:24:58;;;;;;;0.00;0.00;;;16.00;99.90;;;16.17;100.00;100365.78;4982490;28;20283;-79
2023/05/12 10:27:35;;;;;;;0.03;0.03;;;16.10;99.90;;;16.20;100.00;100363.06;4958205;28;20236;-79
2023/05/12 10:30:05;;;;;;;0.00;0.00;;;18.80;99.90;;;16.14;100.00;100356.03;4992603;28;20246;-79
2023/05/12 10:32:32;;;;;;;0.00;0.00;;;;;;;16.03;100.00;100357.97;4988609;28;20222;-79